sensor_id;sensor_type;location;lat;lon;timestamp;temperature;humidity
17994;DHT22;9122;48.406;9.984;2023-08-06T00:03:19;18.10;96.50
17994;DHT22;9122;48.406;9.984;2023-08-06T00:06:06;18.10;97.10
17994;DHT22;9122;48.406;9.984;2023-08-06T00:08:51;18.00;97.10
17994;DHT22;9122;48.406;9.984;2023-08-06T00:11:36;18.00;99.90
17994;DHT22;9122;48.406;9.984;2023-08-06T00:14:20;18.00;96.80
17994;DHT22;9122;48.406;9.984;2023-08-06T00:17:04;18.00;97.00
17994;DHT22;9122;48.406;9.984;2023-08-06T00:19:49;17.90;97.20
17994;DHT22;9122;48.406;9.984;2023-08-06T00:22:37;17.30;97.00
17994;DHT22;9122;48.406;9.984;2023-08-06T00:25:22;18.00;96.70
17994;DHT22;9122;48.406;9.984;2023-08-06T00:28:06;17.90;97.00
17994;DHT22;9122;48.406;9.984;2023-08-06T00:30:54;17.90;97.10
17994;DHT22;9122;48.406;9.984;2023-08-06T00:41:52;17.90;96.50
17994;DHT22;9122;48.406;9.984;2023-08-06T00:44:38;17.80;97.30
17994;DHT22;9122;48.406;9.984;2023-08-06T00:47:22;17.80;97.20
17994;DHT22;9122;48.406;9.984;2023-08-06T00:50:07;17.70;99.90
17994;DHT22;9122;48.406;9.984;2023-08-06T00:52:53;17.80;97.00
17994;DHT22;9122;48.406;9.984;2023-08-06T00:55:38;17.80;97.30
17994;DHT22;9122;48.406;9.984;2023-08-06T01:01:06;17.70;96.50
17994;DHT22;9122;48.406;9.984;2023-08-06T01:15:49;17.60;96.70
17994;DHT22;9122;48.406;9.984;2023-08-06T01:18:35;17.60;97.40
17994;DHT22;9122;48.406;9.984;2023-08-06T01:21:21;17.60;97.70
17994;DHT22;9122;48.406;9.984;2023-08-06T01:27:10;17.60;96.60
17994;DHT22;9122;48.406;9.984;2023-08-06T01:30:34;17.60;97.00
17994;DHT22;9122;48.406;9.984;2023-08-06T01:33:19;17.60;99.90
17994;DHT22;9122;48.406;9.984;2023-08-06T01:36:06;17.50;97.00
17994;DHT22;9122;48.406;9.984;2023-08-06T01:38:53;17.40;99.90
17994;DHT22;9122;48.406;9.984;2023-08-06T01:41:38;17.50;97.80
17994;DHT22;9122;48.406;9.984;2023-08-06T01:44:23;17.50;99.90
17994;DHT22;9122;48.406;9.984;2023-08-06T01:52:36;17.40;96.40
17994;DHT22;9122;48.406;9.984;2023-08-06T01:55:20;17.50;97.00
17994;DHT22;9122;48.406;9.984;2023-08-06T01:58:04;17.30;96.80
17994;DHT22;9122;48.406;9.984;2023-08-06T02:03:33;17.30;96.30
17994;DHT22;9122;48.406;9.984;2023-08-06T02:06:18;17.20;96.90
17994;DHT22;9122;48.406;9.984;2023-08-06T02:09:02;17.20;99.90
17994;DHT22;9122;48.406;9.984;2023-08-06T02:11:47;17.10;97.10
17994;DHT22;9122;48.406;9.984;2023-08-06T02:14:31;17.10;97.20
17994;DHT22;9122;48.406;9.984;2023-08-06T02:17:16;16.40;96.80
17994;DHT22;9122;48.406;9.984;2023-08-06T02:20:01;17.10;99.90
17994;DHT22;9122;48.406;9.984;2023-08-06T02:22:45;17.10;97.30
17994;DHT22;9122;48.406;9.984;2023-08-06T02:25:33;17.20;99.90
17994;DHT22;9122;48.406;9.984;2023-08-06T02:31:02;17.00;96.50
17994;DHT22;9122;48.406;9.984;2023-08-06T02:33:47;17.00;97.20
17994;DHT22;9122;48.406;9.984;2023-08-06T02:36:31;17.00;97.30
17994;DHT22;9122;48.406;9.984;2023-08-06T02:39:15;17.20;97.90
17994;DHT22;9122;48.406;9.984;2023-08-06T02:42:00;17.00;99.90
17994;DHT22;9122;48.406;9.984;2023-08-06T02:50:13;16.90;99.90
17994;DHT22;9122;48.406;9.984;2023-08-06T02:52:58;16.90;97.30
17994;DHT22;9122;48.406;9.984;2023-08-06T02:55:46;16.90;97.60
17994;DHT22;9122;48.406;9.984;2023-08-06T02:58:34;16.90;97.10
17994;DHT22;9122;48.406;9.984;2023-08-06T03:01:19;16.90;97.40
17994;DHT22;9122;48.406;9.984;2023-08-06T03:04:03;16.80;99.90
17994;DHT22;9122;48.406;9.984;2023-08-06T03:06:51;16.80;97.40
17994;DHT22;9122;48.406;9.984;2023-08-06T03:09:35;16.80;97.40
17994;DHT22;9122;48.406;9.984;2023-08-06T03:12:20;16.90;97.30
17994;DHT22;9122;48.406;9.984;2023-08-06T03:15:05;16.80;97.40
17994;DHT22;9122;48.406;9.984;2023-08-06T03:20:34;16.80;96.70
17994;DHT22;9122;48.406;9.984;2023-08-06T03:23:18;16.80;97.40
17994;DHT22;9122;48.406;9.984;2023-08-06T03:26:06;16.80;97.50
17994;DHT22;9122;48.406;9.984;2023-08-06T03:28:51;16.70;97.40
17994;DHT22;9122;48.406;9.984;2023-08-06T03:31:35;16.70;97.60
17994;DHT22;9122;48.406;9.984;2023-08-06T03:37:04;16.60;97.00
17994;DHT22;9122;48.406;9.984;2023-08-06T03:39:48;16.60;97.70
17994;DHT22;9122;48.406;9.984;2023-08-06T03:45:17;16.60;97.10
17994;DHT22;9122;48.406;9.984;2023-08-06T03:48:02;16.60;97.70
17994;DHT22;9122;48.406;9.984;2023-08-06T03:50:46;16.60;97.70
17994;DHT22;9122;48.406;9.984;2023-08-06T03:53:31;16.50;97.70
17994;DHT22;9122;48.406;9.984;2023-08-06T03:56:15;16.60;97.70
17994;DHT22;9122;48.406;9.984;2023-08-06T03:58:59;16.60;97.80
17994;DHT22;9122;48.406;9.984;2023-08-06T04:01:44;16.50;97.80
17994;DHT22;9122;48.406;9.984;2023-08-06T04:10:00;16.50;97.40
17994;DHT22;9122;48.406;9.984;2023-08-06T04:12:45;16.40;97.70
17994;DHT22;9122;48.406;9.984;2023-08-06T04:15:29;16.40;97.80
17994;DHT22;9122;48.406;9.984;2023-08-06T04:26:27;16.40;97.30
17994;DHT22;9122;48.406;9.984;2023-08-06T04:31:55;16.30;97.10
17994;DHT22;9122;48.406;9.984;2023-08-06T04:40:09;16.30;96.80
17994;DHT22;9122;48.406;9.984;2023-08-06T04:42:54;16.30;97.60
17994;DHT22;9122;48.406;9.984;2023-08-06T04:45:46;16.30;97.20
17994;DHT22;9122;48.406;9.984;2023-08-06T04:48:30;16.30;97.80
17994;DHT22;9122;48.406;9.984;2023-08-06T04:51:14;16.30;99.90
17994;DHT22;9122;48.406;9.984;2023-08-06T04:53:59;16.30;97.40
17994;DHT22;9122;48.406;9.984;2023-08-06T04:56:43;16.40;97.60
17994;DHT22;9122;48.406;9.984;2023-08-06T05:02:11;16.30;96.90
17994;DHT22;9122;48.406;9.984;2023-08-06T05:04:56;16.30;99.90
17994;DHT22;9122;48.406;9.984;2023-08-06T05:07:40;16.40;97.60
17994;DHT22;9122;48.406;9.984;2023-08-06T05:10:25;16.30;97.50
17994;DHT22;9122;48.406;9.984;2023-08-06T05:21:25;16.20;96.90
17994;DHT22;9122;48.406;9.984;2023-08-06T05:24:09;16.40;97.70
17994;DHT22;9122;48.406;9.984;2023-08-06T05:29:38;16.10;97.20
17994;DHT22;9122;48.406;9.984;2023-08-06T05:37:53;16.00;97.40
17994;DHT22;9122;48.406;9.984;2023-08-06T05:43:22;16.00;97.90
17994;DHT22;9122;48.406;9.984;2023-08-06T05:51:36;16.10;99.90
17994;DHT22;9122;48.406;9.984;2023-08-06T05:57:05;16.00;97.70
17994;DHT22;9122;48.406;9.984;2023-08-06T05:59:50;16.00;98.40
17994;DHT22;9122;48.406;9.984;2023-08-06T06:02:34;16.00;98.40
17994;DHT22;9122;48.406;9.984;2023-08-06T06:08:03;16.00;97.70
17994;DHT22;9122;48.406;9.984;2023-08-06T06:10:47;16.10;98.40
17994;DHT22;9122;48.406;9.984;2023-08-06T06:13:31;16.20;98.60
17994;DHT22;9122;48.406;9.984;2023-08-06T06:19:00;16.30;97.60
17994;DHT22;9122;48.406;9.984;2023-08-06T06:21:44;16.40;99.90
17994;DHT22;9122;48.406;9.984;2023-08-06T06:24:29;16.50;98.30
17994;DHT22;9122;48.406;9.984;2023-08-06T06:27:13;16.60;98.10
17994;DHT22;9122;48.406;9.984;2023-08-06T06:35:32;16.80;96.90
17994;DHT22;9122;48.406;9.984;2023-08-06T06:41:01;16.80;96.40
17994;DHT22;9122;48.406;9.984;2023-08-06T06:49:16;16.80;96.70
17994;DHT22;9122;48.406;9.984;2023-08-06T06:52:01;16.80;97.40
17994;DHT22;9122;48.406;9.984;2023-08-06T06:57:30;17.00;96.30
17994;DHT22;9122;48.406;9.984;2023-08-06T07:00:15;17.10;99.90
17994;DHT22;9122;48.406;9.984;2023-08-06T07:03:05;17.10;99.90
17994;DHT22;9122;48.406;9.984;2023-08-06T07:05:50;17.10;96.10
17994;DHT22;9122;48.406;9.984;2023-08-06T07:08:35;17.10;99.90
17994;DHT22;9122;48.406;9.984;2023-08-06T07:11:20;17.00;95.70
17994;DHT22;9122;48.406;9.984;2023-08-06T07:14:04;17.10;99.90
17994;DHT22;9122;48.406;9.984;2023-08-06T07:22:18;17.10;95.30
17994;DHT22;9122;48.406;9.984;2023-08-06T07:25:03;17.20;95.90
17994;DHT22;9122;48.406;9.984;2023-08-06T07:27:48;17.20;96.20
17994;DHT22;9122;48.406;9.984;2023-08-06T07:30:32;17.30;99.90
17994;DHT22;9122;48.406;9.984;2023-08-06T07:33:17;17.30;95.20
17994;DHT22;9122;48.406;9.984;2023-08-06T07:36:11;17.30;95.00
17994;DHT22;9122;48.406;9.984;2023-08-06T07:38:56;17.30;94.80
17994;DHT22;9122;48.406;9.984;2023-08-06T07:41:40;17.30;94.70
17994;DHT22;9122;48.406;9.984;2023-08-06T07:47:10;17.40;93.70
17994;DHT22;9122;48.406;9.984;2023-08-06T07:49:54;17.70;94.20
17994;DHT22;9122;48.406;9.984;2023-08-06T07:52:38;17.50;93.60
17994;DHT22;9122;48.406;9.984;2023-08-06T07:55:22;17.70;99.90
17994;DHT22;9122;48.406;9.984;2023-08-06T07:58:08;18.00;92.40
17994;DHT22;9122;48.406;9.984;2023-08-06T08:00:52;17.80;92.80
17994;DHT22;9122;48.406;9.984;2023-08-06T08:03:38;17.80;92.30
17994;DHT22;9122;48.406;9.984;2023-08-06T08:09:08;18.00;91.40
17994;DHT22;9122;48.406;9.984;2023-08-06T08:11:53;18.00;99.90
17994;DHT22;9122;48.406;9.984;2023-08-06T08:20:07;18.00;91.30
17994;DHT22;9122;48.406;9.984;2023-08-06T08:22:51;18.10;99.90
17994;DHT22;9122;48.406;9.984;2023-08-06T08:25:36;18.00;92.00
17994;DHT22;9122;48.406;9.984;2023-08-06T08:28:21;18.10;91.50
17994;DHT22;9122;48.406;9.984;2023-08-06T08:31:08;18.00;92.40
17994;DHT22;9122;48.406;9.984;2023-08-06T08:33:53;18.00;93.00
17994;DHT22;9122;48.406;9.984;2023-08-06T08:39:23;18.00;93.00
17994;DHT22;9122;48.406;9.984;2023-08-06T08:42:10;17.90;93.20
17994;DHT22;9122;48.406;9.984;2023-08-06T08:44:55;17.90;93.80
17994;DHT22;9122;48.406;9.984;2023-08-06T08:47:41;17.80;93.20
17994;DHT22;9122;48.406;9.984;2023-08-06T08:53:11;17.70;92.90
17994;DHT22;9122;48.406;9.984;2023-08-06T08:55:57;17.70;93.60
17994;DHT22;9122;48.406;9.984;2023-08-06T09:01:27;17.60;92.80
17994;DHT22;9122;48.406;9.984;2023-08-06T09:04:13;17.60;93.20
17994;DHT22;9122;48.406;9.984;2023-08-06T09:06:58;17.70;99.90
17994;DHT22;9122;48.406;9.984;2023-08-06T09:09:43;17.60;93.50
17994;DHT22;9122;48.406;9.984;2023-08-06T09:12:30;17.50;93.40
17994;DHT22;9122;48.406;9.984;2023-08-06T09:15:14;17.50;93.50
17994;DHT22;9122;48.406;9.984;2023-08-06T09:18:00;17.60;99.90
17994;DHT22;9122;48.406;9.984;2023-08-06T09:20:44;17.50;99.90
17994;DHT22;9122;48.406;9.984;2023-08-06T09:23:30;17.50;93.60
17994;DHT22;9122;48.406;9.984;2023-08-06T09:26:14;17.60;93.70
17994;DHT22;9122;48.406;9.984;2023-08-06T09:28:59;17.50;93.80
17994;DHT22;9122;48.406;9.984;2023-08-06T09:31:45;17.50;93.50
17994;DHT22;9122;48.406;9.984;2023-08-06T09:34:30;17.50;99.90
17994;DHT22;9122;48.406;9.984;2023-08-06T09:37:14;17.50;99.90
17994;DHT22;9122;48.406;9.984;2023-08-06T09:42:52;17.50;94.00
17994;DHT22;9122;48.406;9.984;2023-08-06T09:45:37;17.40;93.90
17994;DHT22;9122;48.406;9.984;2023-08-06T09:48:24;17.40;94.20
17994;DHT22;9122;48.406;9.984;2023-08-06T09:51:09;17.30;94.30
17994;DHT22;9122;48.406;9.984;2023-08-06T09:53:54;17.30;94.40
17994;DHT22;9122;48.406;9.984;2023-08-06T09:56:40;17.20;94.70
17994;DHT22;9122;48.406;9.984;2023-08-06T09:59:26;17.20;95.00
17994;DHT22;9122;48.406;9.984;2023-08-06T10:02:13;17.20;95.40
17994;DHT22;9122;48.406;9.984;2023-08-06T10:04:58;17.20;95.30
17994;DHT22;9122;48.406;9.984;2023-08-06T10:07:45;17.20;95.60
17994;DHT22;9122;48.406;9.984;2023-08-06T10:10:32;17.10;95.60
17994;DHT22;9122;48.406;9.984;2023-08-06T10:13:18;17.10;96.00
17994;DHT22;9122;48.406;9.984;2023-08-06T10:16:05;17.10;96.20
17994;DHT22;9122;48.406;9.984;2023-08-06T10:18:50;17.00;95.80
17994;DHT22;9122;48.406;9.984;2023-08-06T10:27:04;17.00;95.90
17994;DHT22;9122;48.406;9.984;2023-08-06T10:32:47;17.00;96.00
17994;DHT22;9122;48.406;9.984;2023-08-06T10:38:25;17.20;96.30
17994;DHT22;9122;48.406;9.984;2023-08-06T10:41:28;17.30;99.90
17994;DHT22;9122;48.406;9.984;2023-08-06T10:44:14;17.40;95.80
17994;DHT22;9122;48.406;9.984;2023-08-06T10:47:27;17.90;96.00
17994;DHT22;9122;48.406;9.984;2023-08-06T10:50:16;17.40;95.30
17994;DHT22;9122;48.406;9.984;2023-08-06T10:53:04;17.40;95.50
17994;DHT22;9122;48.406;9.984;2023-08-06T10:55:50;17.40;95.80
17994;DHT22;9122;48.406;9.984;2023-08-06T11:01:19;17.30;95.60
17994;DHT22;9122;48.406;9.984;2023-08-06T11:04:06;17.40;99.90
17994;DHT22;9122;48.406;9.984;2023-08-06T11:06:54;17.20;99.90
17994;DHT22;9122;48.406;9.984;2023-08-06T11:09:38;17.20;96.90
17994;DHT22;9122;48.406;9.984;2023-08-06T11:12:23;17.20;96.50
17994;DHT22;9122;48.406;9.984;2023-08-06T11:15:08;17.20;95.60
17994;DHT22;9122;48.406;9.984;2023-08-06T11:17:52;17.20;96.20
17994;DHT22;9122;48.406;9.984;2023-08-06T11:26:07;17.20;95.80
17994;DHT22;9122;48.406;9.984;2023-08-06T11:34:21;17.10;95.80
17994;DHT22;9122;48.406;9.984;2023-08-06T11:37:07;17.10;96.40
17994;DHT22;9122;48.406;9.984;2023-08-06T11:39:53;17.40;96.40
17994;DHT22;9122;48.406;9.984;2023-08-06T11:45:24;17.00;96.40
17994;DHT22;9122;48.406;9.984;2023-08-06T11:51:00;17.10;96.30
17994;DHT22;9122;48.406;9.984;2023-08-06T11:53:57;17.30;97.10
17994;DHT22;9122;48.406;9.984;2023-08-06T11:56:42;16.80;96.50
17994;DHT22;9122;48.406;9.984;2023-08-06T11:59:27;17.20;97.10
17994;DHT22;9122;48.406;9.984;2023-08-06T12:02:16;17.00;95.60
17994;DHT22;9122;48.406;9.984;2023-08-06T12:08:04;17.10;95.90
17994;DHT22;9122;48.406;9.984;2023-08-06T12:13:36;17.20;99.90
17994;DHT22;9122;48.406;9.984;2023-08-06T12:19:08;17.10;95.50
17994;DHT22;9122;48.406;9.984;2023-08-06T12:27:22;17.10;95.60
17994;DHT22;9122;48.406;9.984;2023-08-06T12:30:06;17.10;99.90
17994;DHT22;9122;48.406;9.984;2023-08-06T12:41:07;17.10;95.80
17994;DHT22;9122;48.406;9.984;2023-08-06T12:43:51;17.10;99.90
17994;DHT22;9122;48.406;9.984;2023-08-06T12:46:37;17.10;96.40
17994;DHT22;9122;48.406;9.984;2023-08-06T12:49:22;17.00;96.90
17994;DHT22;9122;48.406;9.984;2023-08-06T12:52:06;17.00;97.00
17994;DHT22;9122;48.406;9.984;2023-08-06T12:57:36;16.90;96.00
17994;DHT22;9122;48.406;9.984;2023-08-06T13:14:09;17.10;95.70
17994;DHT22;9122;48.406;9.984;2023-08-06T13:25:08;17.20;94.60
17994;DHT22;9122;48.406;9.984;2023-08-06T13:27:53;17.30;95.00
17994;DHT22;9122;48.406;9.984;2023-08-06T13:33:26;17.30;94.10
17994;DHT22;9122;48.406;9.984;2023-08-06T13:38:55;17.40;93.00
17994;DHT22;9122;48.406;9.984;2023-08-06T13:49:54;17.50;92.20
17994;DHT22;9122;48.406;9.984;2023-08-06T13:52:39;17.50;92.60
17994;DHT22;9122;48.406;9.984;2023-08-06T13:58:10;17.60;91.60
17994;DHT22;9122;48.406;9.984;2023-08-06T14:00:54;17.60;99.90
17994;DHT22;9122;48.406;9.984;2023-08-06T14:06:24;17.50;91.30
17994;DHT22;9122;48.406;9.984;2023-08-06T14:09:09;17.80;99.90
17994;DHT22;9122;48.406;9.984;2023-08-06T14:20:11;17.60;91.10
17994;DHT22;9122;48.406;9.984;2023-08-06T14:25:40;17.50;91.00
17994;DHT22;9122;48.406;9.984;2023-08-06T14:28:25;17.50;99.90
17994;DHT22;9122;48.406;9.984;2023-08-06T14:44:55;17.50;90.70
17994;DHT22;9122;48.406;9.984;2023-08-06T14:47:41;17.30;99.90
17994;DHT22;9122;48.406;9.984;2023-08-06T14:58:42;17.20;92.00
17994;DHT22;9122;48.406;9.984;2023-08-06T15:01:27;17.20;92.20
17994;DHT22;9122;48.406;9.984;2023-08-06T15:04:11;17.20;93.10
17994;DHT22;9122;48.406;9.984;2023-08-06T15:06:55;17.20;93.00
17994;DHT22;9122;48.406;9.984;2023-08-06T15:12:24;17.30;92.30
17994;DHT22;9122;48.406;9.984;2023-08-06T15:15:08;17.40;92.90
17994;DHT22;9122;48.406;9.984;2023-08-06T15:17:53;17.30;92.70
17994;DHT22;9122;48.406;9.984;2023-08-06T15:23:24;17.40;91.90
17994;DHT22;9122;48.406;9.984;2023-08-06T15:37:10;17.40;93.00
17994;DHT22;9122;48.406;9.984;2023-08-06T15:45:26;17.40;93.00
17994;DHT22;9122;48.406;9.984;2023-08-06T15:50:56;17.30;92.10
17994;DHT22;9122;48.406;9.984;2023-08-06T15:53:41;17.30;93.40
17994;DHT22;9122;48.406;9.984;2023-08-06T15:59:40;17.30;99.90
17994;DHT22;9122;48.406;9.984;2023-08-06T16:07:56;17.20;91.00
17994;DHT22;9122;48.406;9.984;2023-08-06T16:13:28;17.00;99.90
17994;DHT22;9122;48.406;9.984;2023-08-06T16:16:12;17.10;90.60
17994;DHT22;9122;48.406;9.984;2023-08-06T16:24:26;17.10;90.60
17994;DHT22;9122;48.406;9.984;2023-08-06T16:27:14;17.10;91.90
17994;DHT22;9122;48.406;9.984;2023-08-06T16:32:43;17.10;90.10
17994;DHT22;9122;48.406;9.984;2023-08-06T16:40:59;17.10;90.00
17994;DHT22;9122;48.406;9.984;2023-08-06T16:43:44;17.00;91.00
17994;DHT22;9122;48.406;9.984;2023-08-06T16:46:28;17.00;90.90
17994;DHT22;9122;48.406;9.984;2023-08-06T16:51:58;17.00;88.90
17994;DHT22;9122;48.406;9.984;2023-08-06T16:57:26;17.00;89.00
17994;DHT22;9122;48.406;9.984;2023-08-06T17:00:11;16.90;90.20
17994;DHT22;9122;48.406;9.984;2023-08-06T17:02:56;16.90;90.00
17994;DHT22;9122;48.406;9.984;2023-08-06T17:05:41;16.90;89.40
17994;DHT22;9122;48.406;9.984;2023-08-06T17:08:27;16.90;89.40
17994;DHT22;9122;48.406;9.984;2023-08-06T17:11:14;16.90;89.20
17994;DHT22;9122;48.406;9.984;2023-08-06T17:16:43;16.90;87.20
17994;DHT22;9122;48.406;9.984;2023-08-06T17:19:27;16.80;89.30
17994;DHT22;9122;48.406;9.984;2023-08-06T17:22:12;16.80;89.70
17994;DHT22;9122;48.406;9.984;2023-08-06T17:24:56;16.80;88.20
17994;DHT22;9122;48.406;9.984;2023-08-06T17:27:40;16.70;90.20
17994;DHT22;9122;48.406;9.984;2023-08-06T17:33:10;16.70;89.60
17994;DHT22;9122;48.406;9.984;2023-08-06T17:35:55;16.90;91.10
17994;DHT22;9122;48.406;9.984;2023-08-06T17:49:40;16.50;90.20
17994;DHT22;9122;48.406;9.984;2023-08-06T17:52:24;16.60;91.00
17994;DHT22;9122;48.406;9.984;2023-08-06T17:57:54;16.40;90.30
17994;DHT22;9122;48.406;9.984;2023-08-06T18:00:38;16.30;90.50
17994;DHT22;9122;48.406;9.984;2023-08-06T18:03:23;16.40;91.80
17994;DHT22;9122;48.406;9.984;2023-08-06T18:06:08;16.30;91.60
17994;DHT22;9122;48.406;9.984;2023-08-06T18:11:37;16.40;91.50
17994;DHT22;9122;48.406;9.984;2023-08-06T18:14:21;16.40;91.90
17994;DHT22;9122;48.406;9.984;2023-08-06T18:17:05;16.40;91.80
17994;DHT22;9122;48.406;9.984;2023-08-06T18:19:50;16.40;91.80
17994;DHT22;9122;48.406;9.984;2023-08-06T18:22:35;16.40;91.40
17994;DHT22;9122;48.406;9.984;2023-08-06T18:25:19;16.30;91.40
17994;DHT22;9122;48.406;9.984;2023-08-06T18:28:03;16.40;91.20
17994;DHT22;9122;48.406;9.984;2023-08-06T18:30:48;16.30;91.30
17994;DHT22;9122;48.406;9.984;2023-08-06T18:33:33;16.40;91.20
17994;DHT22;9122;48.406;9.984;2023-08-06T18:39:02;16.30;99.90
17994;DHT22;9122;48.406;9.984;2023-08-06T18:41:46;16.30;91.20
17994;DHT22;9122;48.406;9.984;2023-08-06T18:47:15;16.30;90.90
17994;DHT22;9122;48.406;9.984;2023-08-06T18:49:59;16.50;91.50
17994;DHT22;9122;48.406;9.984;2023-08-06T18:52:44;16.20;91.70
17994;DHT22;9122;48.406;9.984;2023-08-06T18:55:32;16.40;92.00
17994;DHT22;9122;48.406;9.984;2023-08-06T18:58:17;16.10;91.70
17994;DHT22;9122;48.406;9.984;2023-08-06T19:01:01;16.20;91.90
17994;DHT22;9122;48.406;9.984;2023-08-06T19:03:46;16.10;92.00
17994;DHT22;9122;48.406;9.984;2023-08-06T19:09:16;16.10;91.00
17994;DHT22;9122;48.406;9.984;2023-08-06T19:12:00;16.10;91.50
17994;DHT22;9122;48.406;9.984;2023-08-06T19:14:45;16.00;91.30
17994;DHT22;9122;48.406;9.984;2023-08-06T19:17:30;16.00;91.40
17994;DHT22;9122;48.406;9.984;2023-08-06T19:20:17;16.00;91.20
17994;DHT22;9122;48.406;9.984;2023-08-06T19:31:18;15.90;90.30
17994;DHT22;9122;48.406;9.984;2023-08-06T19:34:03;16.00;99.90
17994;DHT22;9122;48.406;9.984;2023-08-06T19:36:49;15.80;90.90
17994;DHT22;9122;48.406;9.984;2023-08-06T19:39:34;15.90;91.30
17994;DHT22;9122;48.406;9.984;2023-08-06T19:42:19;15.80;91.10
17994;DHT22;9122;48.406;9.984;2023-08-06T19:45:03;15.80;91.00
17994;DHT22;9122;48.406;9.984;2023-08-06T19:47:49;15.90;91.20
17994;DHT22;9122;48.406;9.984;2023-08-06T19:50:33;15.90;91.20
17994;DHT22;9122;48.406;9.984;2023-08-06T19:53:17;15.80;90.90
17994;DHT22;9122;48.406;9.984;2023-08-06T19:56:03;15.80;90.90
17994;DHT22;9122;48.406;9.984;2023-08-06T19:58:48;15.80;91.20
17994;DHT22;9122;48.406;9.984;2023-08-06T20:01:33;15.70;91.80
17994;DHT22;9122;48.406;9.984;2023-08-06T20:07:03;15.70;90.50
17994;DHT22;9122;48.406;9.984;2023-08-06T20:09:47;15.70;91.30
17994;DHT22;9122;48.406;9.984;2023-08-06T20:12:32;15.70;91.40
17994;DHT22;9122;48.406;9.984;2023-08-06T20:15:16;15.80;91.40
17994;DHT22;9122;48.406;9.984;2023-08-06T20:18:03;15.50;99.90
17994;DHT22;9122;48.406;9.984;2023-08-06T20:23:32;15.80;91.60
17994;DHT22;9122;48.406;9.984;2023-08-06T20:26:20;15.60;99.90
17994;DHT22;9122;48.406;9.984;2023-08-06T20:29:07;15.50;91.80
17994;DHT22;9122;48.406;9.984;2023-08-06T20:40:08;15.40;92.00
17994;DHT22;9122;48.406;9.984;2023-08-06T20:56:40;15.30;91.00
17994;DHT22;9122;48.406;9.984;2023-08-06T20:59:25;15.20;90.90
17994;DHT22;9122;48.406;9.984;2023-08-06T21:04:54;15.20;90.90
17994;DHT22;9122;48.406;9.984;2023-08-06T21:07:39;15.10;92.00
17994;DHT22;9122;48.406;9.984;2023-08-06T21:10:24;15.10;92.10
17994;DHT22;9122;48.406;9.984;2023-08-06T21:13:10;15.10;91.90
17994;DHT22;9122;48.406;9.984;2023-08-06T21:16:00;15.10;92.20
17994;DHT22;9122;48.406;9.984;2023-08-06T21:26:59;15.00;91.00
17994;DHT22;9122;48.406;9.984;2023-08-06T21:35:13;15.00;90.80
17994;DHT22;9122;48.406;9.984;2023-08-06T21:46:18;15.00;91.00
17994;DHT22;9122;48.406;9.984;2023-08-06T21:49:04;14.80;99.90
17994;DHT22;9122;48.406;9.984;2023-08-06T22:00:03;14.90;91.40
17994;DHT22;9122;48.406;9.984;2023-08-06T22:02:48;14.90;92.80
17994;DHT22;9122;48.406;9.984;2023-08-06T22:08:17;14.80;91.80
17994;DHT22;9122;48.406;9.984;2023-08-06T22:13:47;14.80;92.10
17994;DHT22;9122;48.406;9.984;2023-08-06T22:22:01;14.70;92.50
17994;DHT22;9122;48.406;9.984;2023-08-06T22:24:48;14.70;92.80
17994;DHT22;9122;48.406;9.984;2023-08-06T22:27:33;14.70;95.10
17994;DHT22;9122;48.406;9.984;2023-08-06T22:41:23;14.40;93.00
17994;DHT22;9122;48.406;9.984;2023-08-06T22:44:08;14.30;94.70
17994;DHT22;9122;48.406;9.984;2023-08-06T22:55:08;14.30;99.90
17994;DHT22;9122;48.406;9.984;2023-08-06T23:06:06;14.20;93.00
17994;DHT22;9122;48.406;9.984;2023-08-06T23:08:53;14.10;95.00
17994;DHT22;9122;48.406;9.984;2023-08-06T23:11:37;14.10;94.30
17994;DHT22;9122;48.406;9.984;2023-08-06T23:14:22;14.10;94.10
17994;DHT22;9122;48.406;9.984;2023-08-06T23:17:06;14.00;99.90
17994;DHT22;9122;48.406;9.984;2023-08-06T23:39:06;13.90;99.90
17994;DHT22;9122;48.406;9.984;2023-08-06T23:41:55;13.90;95.80
17994;DHT22;9122;48.406;9.984;2023-08-06T23:44:39;13.90;99.90
17994;DHT22;9122;48.406;9.984;2023-08-06T23:47:24;14.00;99.90
17994;DHT22;9122;48.406;9.984;2023-08-06T23:50:09;13.90;95.20
17994;DHT22;9122;48.406;9.984;2023-08-06T23:55:39;13.90;94.30
